Junin, Argentina
Current Conditions -  °F | °C
As of 10:00 AM on Friday 19 Dec 2014 (Local Time) from SAAR Reporting Station
Clear Clear  
Wind Chill: 29°   Ceiling: Unl
Heat Index: 30°   Visibility: 6mi
Dew Point: 18°   Wind: 14mph
Humidity: 51%   Direction: 320°NW
Pressure: 29.71"   Gusts: NA
Location:  34.59°S, 60.96°W
Report Text: SAAR 191300Z 32012KT CAVOK 29/18 Q1006
Loading
Personal Weather Stations






























Interactive Weather Map New forecast layout! Learn more

10-Day Weather Forecast

Advertisements
Track Severe Weather on mobile